Homer, Alaska
Current Conditions -  °F | °C
As of 7:53 PM on Tuesday 25 Nov 2014 (Local Time) from PAHO Reporting Station
Broken Clouds Broken Clouds  
Wind Chill: 31°   Ceiling: 4100
Heat Index: 35°   Visibility: 10mi
Dew Point: 32°   Wind: 5mph
Humidity: 89%   Direction: 50°NE
Pressure: 30.28"   Gusts: NA
Location:  59.64°N, 151.55°W
Report Text: PAHO 260453Z 05004KT 10SM BKN041 02/00 A3028 RMK AO2 SLP256 T00170000
Loading
Personal Weather Stations






























Interactive Weather Map New forecast layout! Learn more

10-Day Weather Forecast

Advertisements
Track Severe Weather on mobile